Hauptseite
METAR-TAF:

METAR-TAF

Flughäfen :

Braunschweig, Deutschland

Flughafen Braunschweig-Wolfsburg

Breite: 52-18N, Länge: 010-27E, Höhe: 81 m

Beobachtung

Neuester Wetterbericht von vor 4 Stunden und 48 Minuten, um 19:50 UTC
Windstille
Temperatur 4°C
Luftfeuchtigkeit 60%
Luftdruck 1015 hPa
Sichtweite 10 km oder mehr
keine Wolken unter 1500 m und keine Kumulonimbus oder Gewitterwolken

METAR: EDVE 271950Z 00000KT CAVOK 04/M03 Q1015

Zeit: 02:38 (00:38 UTC)

Prognose

Neuester Wetterbericht von vor 7 Stunden und 38 Minuten, um 17:00 UTC
Gültige Prognose vom 27 um 18 UTC bis 27 um 21 UTC
Wind 8 kt aus West/Nordwest
Sichtweite 10 km oder mehr
Leicht bewölkt in der Höhe von 4500 ft
Übergehend zu
vom 27 um 18 UTC bis 27 um 20 UTC
Wind 5 kt aus Südwest

TAF: EDVE 271700Z 2718/2721 29008KT 9999 FEW045 BECMG 2718/2720 23005KT

Wetterbeobachtungen und Prognosen von mehr als 4000 Flughäfen (METAR und TAF Bericht).

Die verfügbaren Stationen werden durch gelbe und rote Markierungen auf der Karte dargestellt.

Führen Sie die Maus auf sie, um den Namen der Station zu sehen.

Darauf klicken, um die Beobachtung von Wetterbeobachtungen und Prognosen zu sehen.

Um die Karte zu ändern : klicken Sie auf den grünen Tasten mit einem schwarzen Kreuz Zum Vergrößern, auf den grünen Button mit einem Gedankenstrich zu verkleinern, oder auf die grünen Pfeile für benachbarte Karten.


METAR-TAF: